Sitka, AK

3:41 AM AKST on January 18, 2017 (GMT -0900)
Sitka Rocky Gutierrez | | Change Station

Elev 20 ft 57.05 °N, 135.36 °W | Updated 48 minutes ago

Overcast
Overcast
39 °F
Feels Like 36 °F
N
5
Wind Variable Wind from NNW

Today
High -- | Low -- °F
--% Chance of Precip.
Yesterday
High -- | Low -- °F
Precip. -- in
Pressure 28.71 in
Visibility 10.0 miles
Clouds Overcast 7000 ft
Windchill 36 °F
Dew Point 35 °F
Humidity 86%
Rainfall 0.00 in
Snow Depth Not available.
8:23 AM 4:00 PM
Waning Gibbous, 63% visible
METAR PASI 181153Z 34004KT 10SM OVC070 04/02 A2871 RMK AO2 SLP721 T00390017 10044 20017 58019
Pressure 28.71 in
Visibility 10.0 miles
Clouds Overcast 7000 ft
Windchill 36 °F
Dew Point 35 °F
Humidity 86%
Rainfall 0.00 in
Snow Depth Not available.
8:23 AM 4:00 PM
Waning Gibbous, 63% visible
METAR PASI 181153Z 34004KT 10SM OVC070 04/02 A2871 RMK AO2 SLP721 T00390017 10044 20017 58019

Get Your Daily Forecast Email!

Thanks for signing up!

Be on the lookout for a verification email in your inbox.

You'll start receiving the daily forecast at 8 AM.

×

10-Day Weather Forecast

Almanac

Astronomy

Jan. 18, 2017 Rise Set
Actual Time
Civil Twilight
Nautical Twilight
Astronomical Twilight
Moon
Length of Visible Light
Length of Day
Tomorrow will be .
, % of the Moon is Illuminated

Today's Extremes

State Highs State Lows

Community

WunderPhotos

Upload Photos

1,962,540 photos uploaded!

WunderBlog® & News

Nearby

Air Quality

  Air Quality AQ Index Pollutant
Not available.

Snow Depth

Station Depth Elevation

Earthquake Activity

City Distance Mag. Time & Date
Minimum magnitude displayed is 2.5.

Coastal Water Temperatures

Place Temperature

Stations

Nearby Weather Stations

Station Location Temp. Windchill Dew Point Humidity Wind Precip. Elev Updated Type
                   

Watches & Warnings

There are currently no watches in effect.